Time;durP1;ratioP1;P1;durP2;ratioP2;P2;SDS_P1;SDS_P2;PMS_P1;PMS_P2;Temp;Humidity;BMP_temperature;BMP_pressure;BME280_temperature;BME280_humidity;BME280_pressure;Samples;Min_cycle;Max_cycle;Signal;HPM_P1;HPM_P2
2022/03/03 00:00:27;;;;;;;57.63;31.58;;;6.70;99.90;;;;;;5097913;27;20051;-72
2022/03/03 00:02:53;;;;;;;60.45;30.48;;;7.00;99.90;;;;;;5073946;28;20461;-72
2022/03/03 00:05:19;;;;;;;62.13;31.38;;;7.00;99.90;;;;;;5109398;27;20096;-72
2022/03/03 00:07:45;;;;;;;60.60;30.30;;;7.00;99.90;;;;;;5121765;27;20095;-72
2022/03/03 00:10:11;;;;;;;61.47;31.27;;;7.10;99.90;;;;;;5087557;28;20167;-72
2022/03/03 00:12:37;;;;;;;62.28;31.80;;;7.00;99.90;;;;;;5117662;27;20040;-72
2022/03/03 00:15:03;;;;;;;65.80;31.38;;;7.10;99.90;;;;;;5095160;28;20063;-72
2022/03/03 00:17:29;;;;;;;61.05;30.77;;;7.20;99.90;;;;;;5086853;28;20546;-72
2022/03/03 00:19:55;;;;;;;64.78;31.45;;;7.00;99.90;;;;;;5088272;28;20042;-73
2022/03/03 00:22:21;;;;;;;61.65;30.60;;;6.90;99.90;;;;;;5075852;28;20036;-73
2022/03/03 00:24:48;;;;;;;64.40;34.75;;;7.00;99.90;;;;;;5070480;28;20070;-74
2022/03/03 00:27:14;;;;;;;54.78;28.27;;;7.20;99.90;;;;;;5100822;28;20050;-73
2022/03/03 00:29:40;;;;;;;67.60;36.60;;;7.10;99.90;;;;;;5075136;28;20360;-73
2022/03/03 00:32:06;;;;;;;71.78;34.78;;;7.40;99.90;;;;;;5076234;28;20415;-73
2022/03/03 00:34:32;;;;;;;71.55;34.47;;;7.10;99.90;;;;;;5094586;28;20039;-73
2022/03/03 00:36:58;;;;;;;59.20;30.23;;;7.20;99.90;;;;;;5081050;28;20487;-73
2022/03/03 00:39:23;;;;;;;71.53;36.28;;;7.30;99.90;;;;;;5076988;28;20081;-73
2022/03/03 00:41:49;;;;;;;60.25;32.30;;;8.70;99.90;;;;;;5102367;28;20047;-73
2022/03/03 00:44:15;;;;;;;56.15;28.13;;;7.30;99.90;;;;;;5103495;28;20043;-74
2022/03/03 00:46:41;;;;;;;60.67;30.15;;;7.40;99.90;;;;;;5085346;28;20042;-73
2022/03/03 00:49:07;;;;;;;58.70;30.15;;;7.10;99.90;;;;;;5083375;27;20365;-74
2022/03/03 00:51:34;;;;;;;65.15;32.45;;;7.30;99.90;;;;;;5102486;28;20096;-73
2022/03/03 00:54:00;;;;;;;61.78;30.70;;;7.20;99.90;;;;;;5073253;28;20398;-74
2022/03/03 00:56:26;;;;;;;61.10;31.08;;;8.40;99.90;;;;;;5101049;28;20078;-74
2022/03/03 00:58:51;;;;;;;56.47;28.73;;;7.20;99.90;;;;;;5076349;28;20079;-71
2022/03/03 01:01:18;;;;;;;60.72;31.17;;;7.40;99.90;;;;;;5116634;27;20512;-71
2022/03/03 01:03:44;;;;;;;58.08;29.35;;;7.20;99.90;;;;;;5098498;28;20067;-73
2022/03/03 01:06:10;;;;;;;57.25;31.38;;;7.20;99.90;;;;;;5072943;28;20036;-73
2022/03/03 01:08:37;;;;;;;61.38;31.17;;;7.30;99.90;;;;;;5098128;28;20715;-73
2022/03/03 01:11:04;;;;;;;60.50;29.55;;;7.00;99.90;;;;;;5124241;27;20047;-73
2022/03/03 01:13:30;;;;;;;60.72;30.73;;;7.00;99.90;;;;;;5107367;27;20086;-74
2022/03/03 01:15:56;;;;;;;61.97;29.58;;;7.20;99.90;;;;;;5094258;28;20104;-74
2022/03/03 01:18:23;;;;;;;59.40;29.70;;;7.30;99.90;;;;;;5099582;28;20488;-73
2022/03/03 01:20:49;;;;;;;57.67;30.17;;;7.20;99.90;;;;;;5077143;28;20044;-74
2022/03/03 01:23:15;;;;;;;58.45;30.48;;;7.10;99.90;;;;;;5083551;28;20084;-74
2022/03/03 01:25:41;;;;;;;56.08;28.20;;;7.00;99.90;;;;;;5084756;28;20043;-74
2022/03/03 01:28:07;;;;;;;60.17;31.58;;;7.10;99.90;;;;;;5100621;27;20031;-74
2022/03/03 01:30:33;;;;;;;59.50;30.15;;;6.90;99.90;;;;;;5080724;28;20115;-74
2022/03/03 01:32:59;;;;;;;62.45;31.70;;;7.00;99.90;;;;;;5095427;28;20494;-74
2022/03/03 01:35:25;;;;;;;58.03;29.98;;;6.90;99.90;;;;;;5095863;28;20444;-73
2022/03/03 01:37:50;;;;;;;59.60;28.88;;;6.70;99.90;;;;;;5111503;27;20123;-73
2022/03/03 01:40:16;;;;;;;58.40;29.52;;;6.70;99.90;;;;;;5079320;28;20681;-73
2022/03/03 01:42:42;;;;;;;57.25;27.52;;;7.00;99.90;;;;;;5093550;28;20047;-72
2022/03/03 01:45:08;;;;;;;54.53;27.75;;;6.60;99.90;;;;;;5104335;28;20460;-73
2022/03/03 01:47:34;;;;;;;59.90;31.25;;;6.60;99.90;;;;;;5098983;28;20079;-73
2022/03/03 01:50:00;;;;;;;63.00;30.42;;;6.90;99.90;;;;;;5074273;28;20071;-73
2022/03/03 01:52:26;;;;;;;54.85;28.58;;;8.10;99.90;;;;;;5092781;28;20047;-73
2022/03/03 01:54:52;;;;;;;57.13;29.42;;;6.80;99.90;;;;;;5096013;28;20116;-73
2022/03/03 01:57:20;;;;;;;59.03;30.15;;;6.40;99.90;;;;;;5080332;28;20413;-74
2022/03/03 01:59:47;;;;;;;56.60;29.13;;;6.70;99.90;;;;;;5109418;28;20043;-74
2022/03/03 02:02:13;;;;;;;57.15;29.30;;;6.60;99.90;;;;;;5107948;28;20031;-73
2022/03/03 02:04:40;;;;;;;60.30;30.13;;;6.60;99.90;;;;;;5098625;28;20051;-74
2022/03/03 02:07:07;;;;;;;56.00;28.30;;;6.60;99.90;;;;;;5092281;28;20033;-72
2022/03/03 02:09:34;;;;;;;55.50;28.67;;;6.40;99.90;;;;;;5105930;28;20055;-73
2022/03/03 02:12:00;;;;;;;51.72;27.98;;;6.60;99.90;;;;;;5074410;28;20024;-74
2022/03/03 02:14:26;;;;;;;49.63;26.17;;;6.40;99.90;;;;;;5091185;28;20050;-74
2022/03/03 02:16:51;;;;;;;55.67;29.15;;;6.70;99.90;;;;;;5076694;28;21765;-74
2022/03/03 02:19:21;;;;;;;62.40;30.20;;;6.60;99.90;;;;;;5067832;28;20118;-73
2022/03/03 02:21:48;;;;;;;60.70;30.80;;;6.40;99.90;;;;;;5093512;28;20043;-73
2022/03/03 02:24:14;;;;;;;61.40;29.20;;;6.30;99.90;;;;;;5076588;28;20124;-74
2022/03/03 02:26:41;;;;;;;61.72;31.60;;;6.50;99.90;;;;;;5102266;28;20043;-74
2022/03/03 02:29:07;;;;;;;54.53;28.13;;;6.20;99.90;;;;;;5079402;28;20492;-74
2022/03/03 02:31:33;;;;;;;56.38;29.15;;;6.40;99.90;;;;;;5083454;28;20039;-73
2022/03/03 02:33:59;;;;;;;53.45;28.00;;;6.70;99.90;;;;;;5083584;28;20050;-73
2022/03/03 02:36:29;;;;;;;59.95;29.20;;;6.40;99.90;;;;;;5073966;28;20042;-73
2022/03/03 02:39:01;;;;;;;52.42;27.42;;;7.30;99.90;;;;;;5101296;28;20085;-73
2022/03/03 02:41:27;;;;;;;54.30;30.98;;;6.00;99.90;;;;;;5102514;28;20043;-73
2022/03/03 02:43:54;;;;;;;58.70;29.98;;;6.30;99.90;;;;;;5114686;27;20100;-73
2022/03/03 02:46:20;;;;;;;54.45;27.50;;;5.90;99.90;;;;;;5096343;27;20055;-73
2022/03/03 02:48:46;;;;;;;59.75;30.67;;;5.90;99.90;;;;;;5077203;28;20047;-73
2022/03/03 02:51:12;;;;;;;58.33;29.92;;;6.20;99.90;;;;;;5101090;28;20464;-73
2022/03/03 02:53:38;;;;;;;59.70;27.90;;;6.10;99.90;;;;;;5097773;28;20039;-73
2022/03/03 02:56:05;;;;;;;52.60;26.75;;;6.10;99.90;;;;;;5097895;27;20046;-73
2022/03/03 02:58:31;;;;;;;58.97;30.15;;;6.20;99.90;;;;;;5077405;28;20109;-73
2022/03/03 03:00:58;;;;;;;59.08;28.88;;;6.00;99.90;;;;;;5095556;27;20447;-73
2022/03/03 03:03:23;;;;;;;57.25;28.08;;;5.90;99.90;;;;;;5107900;27;20130;-73
2022/03/03 03:05:49;;;;;;;52.55;27.55;;;6.00;99.90;;;;;;5077645;28;20162;-73
2022/03/03 03:08:15;;;;;;;53.60;26.80;;;6.00;99.90;;;;;;5092287;28;20044;-75
2022/03/03 03:10:42;;;;;;;56.17;28.17;;;6.10;99.90;;;;;;5095672;28;20118;-73
2022/03/03 03:13:08;;;;;;;55.03;27.88;;;7.00;99.90;;;;;;5084125;28;20092;-73
2022/03/03 03:15:35;;;;;;;53.90;27.27;;;6.10;99.90;;;;;;5075182;28;20070;-73
2022/03/03 03:18:11;;;;;;;52.78;26.05;;;5.80;99.90;;;;;;5082563;28;20031;-74
2022/03/03 03:20:39;;;;;;;49.72;25.80;;;6.10;99.90;;;;;;5092875;28;20032;-73
2022/03/03 03:23:05;;;;;;;55.08;27.10;;;6.20;99.90;;;;;;5084619;28;20040;-73
2022/03/03 03:25:31;;;;;;;51.65;26.33;;;5.80;99.90;;;;;;5092599;28;20427;-74
2022/03/03 03:27:57;;;;;;;55.80;27.85;;;6.00;99.90;;;;;;5105708;28;20067;-73
2022/03/03 03:30:23;;;;;;;50.25;24.63;;;5.70;99.90;;;;;;5098513;27;20135;-73
2022/03/03 03:32:48;;;;;;;51.63;27.10;;;5.80;99.90;;;;;;5072016;28;20050;-73
2022/03/03 03:35:14;;;;;;;55.13;28.85;;;5.80;99.90;;;;;;5078843;28;20067;-72
2022/03/03 03:37:40;;;;;;;52.97;28.33;;;6.10;99.90;;;;;;5098426;27;20036;-73
2022/03/03 03:40:07;;;;;;;55.22;28.08;;;5.90;99.90;;;;;;5084675;27;20040;-73
2022/03/03 03:42:34;;;;;;;59.38;28.90;;;6.20;99.90;;;;;;5095833;28;20095;-72
2022/03/03 03:45:00;;;;;;;57.75;29.90;;;5.90;99.90;;;;;;5088199;28;20419;-72
2022/03/03 03:47:25;;;;;;;62.50;31.02;;;6.00;99.90;;;;;;5108501;27;20047;-72
2022/03/03 03:49:51;;;;;;;53.40;29.20;;;6.30;99.90;;;;;;5082748;28;20035;-73
2022/03/03 03:52:17;;;;;;;56.13;28.63;;;6.50;99.90;;;;;;5086443;28;20047;-72
2022/03/03 03:54:43;;;;;;;61.35;29.90;;;6.10;99.90;;;;;;5097205;28;20410;-73
2022/03/03 03:57:08;;;;;;;61.30;30.05;;;5.90;99.90;;;;;;5112117;27;20178;-73
2022/03/03 03:59:35;;;;;;;55.38;29.30;;;6.20;99.90;;;;;;5092553;27;20056;-73
2022/03/03 04:02:00;;;;;;;52.60;25.90;;;5.80;99.90;;;;;;5086268;27;20055;-73
2022/03/03 04:04:26;;;;;;;53.58;28.35;;;5.90;99.90;;;;;;5077160;28;20039;-73
2022/03/03 04:06:52;;;;;;;52.33;27.85;;;6.20;99.90;;;;;;5078349;27;20052;-73
2022/03/03 04:09:17;;;;;;;46.95;24.98;;;5.90;99.90;;;;;;5095543;27;20500;-73
2022/03/03 04:11:43;;;;;;;55.15;28.23;;;6.80;99.90;;;;;;5093294;27;20036;-73
2022/03/03 04:14:09;;;;;;;53.78;26.50;;;6.10;99.90;;;;;;5106719;28;20125;-73
2022/03/03 04:16:35;;;;;;;56.88;28.63;;;5.80;99.90;;;;;;5090592;28;20121;-74
2022/03/03 04:19:01;;;;;;;57.88;28.35;;;6.00;99.90;;;;;;5109046;28;20396;-72
2022/03/03 04:21:27;;;;;;;58.00;27.23;;;6.00;99.90;;;;;;5101921;28;20046;-73
2022/03/03 04:23:52;;;;;;;62.72;29.88;;;5.80;99.90;;;;;;5069022;28;20040;-73
2022/03/03 04:26:18;;;;;;;53.47;28.25;;;5.70;99.90;;;;;;5088224;27;20406;-73
2022/03/03 04:28:44;;;;;;;50.92;26.92;;;5.90;99.90;;;;;;5108776;27;20031;-72
2022/03/03 04:31:10;;;;;;;55.03;28.38;;;5.60;99.90;;;;;;5077574;28;20040;-72
2022/03/03 04:33:37;;;;;;;63.95;30.13;;;6.30;99.90;;;;;;5087184;28;20054;-73
2022/03/03 04:36:03;;;;;;;61.10;29.63;;;5.80;99.90;;;;;;5087327;28;20037;-73
2022/03/03 04:38:29;;;;;;;55.00;27.35;;;5.70;99.90;;;;;;5082608;28;20043;-73
2022/03/03 04:40:55;;;;;;;53.58;28.85;;;5.40;99.90;;;;;;5095963;27;20050;-73
2022/03/03 04:43:21;;;;;;;51.72;26.25;;;5.60;99.90;;;;;;5104834;27;20079;-72
2022/03/03 04:45:46;;;;;;;55.25;28.35;;;5.30;99.90;;;;;;5102492;28;20097;-73
2022/03/03 04:48:12;;;;;;;64.43;32.00;;;5.50;99.90;;;;;;5078646;28;20050;-73
2022/03/03 04:50:38;;;;;;;55.58;28.38;;;5.50;99.90;;;;;;5091621;28;20067;-73
2022/03/03 04:53:04;;;;;;;56.33;29.10;;;5.10;99.90;;;;;;5102649;28;20039;-74
2022/03/03 04:55:29;;;;;;;55.33;27.67;;;5.40;99.90;;;;;;5090684;27;20043;-73
2022/03/03 04:57:55;;;;;;;58.90;28.70;;;5.70;99.90;;;;;;5095411;27;20040;-73
2022/03/03 05:00:21;;;;;;;58.80;29.55;;;6.90;99.90;;;;;;5104869;28;20392;-72
2022/03/03 05:02:46;;;;;;;54.58;28.90;;;5.20;99.90;;;;;;5106927;28;20032;-73
2022/03/03 05:05:13;;;;;;;60.55;29.08;;;5.10;99.90;;;;;;5118393;27;20096;-73
2022/03/03 05:07:38;;;;;;;52.78;26.27;;;5.40;99.90;;;;;;5073442;28;20498;-73
2022/03/03 05:10:05;;;;;;;56.85;29.90;;;5.40;99.90;;;;;;5093067;27;20122;-73
2022/03/03 05:12:31;;;;;;;61.35;29.13;;;5.40;99.90;;;;;;5110550;27;20111;-73
2022/03/03 05:14:56;;;;;;;60.80;31.25;;;5.60;99.90;;;;;;5114370;27;20039;-72
2022/03/03 05:17:23;;;;;;;54.88;28.88;;;5.30;99.90;;;;;;5095360;27;20038;-72
2022/03/03 05:19:48;;;;;;;58.50;29.20;;;5.00;99.90;;;;;;5088864;27;20039;-72
2022/03/03 05:22:14;;;;;;;57.10;28.85;;;5.00;99.90;;;;;;5105926;28;20039;-72
2022/03/03 05:24:40;;;;;;;44.17;23.30;;;5.10;99.90;;;;;;5086635;28;20032;-72
2022/03/03 05:27:06;;;;;;;55.85;28.17;;;5.00;99.90;;;;;;5110623;27;20119;-72
2022/03/03 05:29:32;;;;;;;56.88;29.13;;;4.70;99.90;;;;;;5103462;28;20035;-72
2022/03/03 05:31:58;;;;;;;56.80;28.73;;;4.90;99.90;;;;;;5082400;27;20032;-72
2022/03/03 05:34:26;;;;;;;59.30;30.65;;;4.50;99.90;;;;;;5066526;28;20028;-72
2022/03/03 05:36:51;;;;;;;54.80;29.05;;;4.90;99.90;;;;;;5091722;27;20040;-72
2022/03/03 05:39:17;;;;;;;55.25;26.23;;;4.90;99.90;;;;;;5100269;27;20043;-72
2022/03/03 05:41:43;;;;;;;53.20;26.80;;;4.80;99.90;;;;;;5102912;28;20036;-72
2022/03/03 05:44:14;;;;;;;53.55;27.77;;;4.80;99.90;;;;;;5069377;28;20103;-73
2022/03/03 05:46:43;;;;;;;50.63;26.08;;;4.60;99.90;;;;;;5121214;27;20050;-74
2022/03/03 05:49:10;;;;;;;49.58;27.42;;;4.90;99.90;;;;;;5078736;28;20036;-74
2022/03/03 05:51:36;;;;;;;49.17;25.08;;;4.20;99.90;;;;;;5094668;28;20051;-74
2022/03/03 05:54:03;;;;;;;48.05;25.30;;;4.50;99.90;;;;;;5107532;28;20063;-73
2022/03/03 05:56:32;;;;;;;52.70;27.45;;;4.40;99.90;;;;;;5081425;28;20040;-74
2022/03/03 05:59:06;;;;;;;41.60;22.90;;;5.00;99.90;;;;;;5078935;28;20857;-74
2022/03/03 06:01:35;;;;;;;48.95;25.23;;;4.10;99.90;;;;;;5093614;28;20083;-74
2022/03/03 06:04:01;;;;;;;50.50;26.88;;;4.10;99.90;;;;;;5110254;27;20035;-74
2022/03/03 06:06:37;;;;;;;48.67;26.08;;;4.00;99.90;;;;;;5084774;28;20047;-74
2022/03/03 06:09:25;;;;;;;57.75;27.85;;;5.50;99.90;;;;;;5092367;28;20036;-74
2022/03/03 06:12:03;;;;;;;52.33;28.42;;;4.40;99.90;;;;;;5084289;28;20040;-73
2022/03/03 06:14:48;;;;;;;51.20;24.85;;;4.00;99.90;;;;;;5100700;28;20044;-74
2022/03/03 06:17:16;;;;;;;47.60;24.85;;;4.10;99.90;;;;;;5103740;28;20053;-73
2022/03/03 06:19:43;;;;;;;56.08;28.83;;;4.50;99.90;;;;;;5084855;28;20036;-73
2022/03/03 06:22:10;;;;;;;57.28;28.58;;;4.20;99.90;;;;;;5095369;28;20083;-74
2022/03/03 06:24:37;;;;;;;63.55;30.52;;;5.00;99.90;;;;;;5080611;28;20499;-73
2022/03/03 06:27:04;;;;;;;49.15;24.42;;;4.40;99.90;;;;;;5104470;28;20043;-74
2022/03/03 06:29:31;;;;;;;52.92;27.92;;;4.50;99.90;;;;;;5092452;28;20109;-74
2022/03/03 06:31:57;;;;;;;57.38;29.40;;;3.90;99.90;;;;;;5088112;28;20070;-74
2022/03/03 06:34:23;;;;;;;57.42;28.35;;;4.00;99.90;;;;;;5106085;28;20040;-74
2022/03/03 06:36:50;;;;;;;55.50;29.88;;;4.30;99.90;;;;;;5098341;27;20042;-72
2022/03/03 06:39:16;;;;;;;59.28;30.42;;;4.40;99.90;;;;;;5097224;27;20040;-72
2022/03/03 06:41:42;;;;;;;58.20;29.60;;;4.30;99.90;;;;;;5081048;27;20039;-75
2022/03/03 06:44:07;;;;;;;61.70;29.75;;;4.30;99.90;;;;;;5097529;28;20027;-72
2022/03/03 06:46:34;;;;;;;61.92;29.63;;;4.40;99.90;;;;;;5099385;27;20067;-72
2022/03/03 06:49:00;;;;;;;61.28;29.48;;;4.40;99.90;;;;;;5102996;28;20031;-73
2022/03/03 06:51:33;;;;;;;56.83;30.17;;;5.80;99.90;;;;;;5098195;27;20085;-73
2022/03/03 06:54:02;;;;;;;56.20;28.88;;;4.10;99.90;;;;;;5080821;28;20036;-72
2022/03/03 06:56:30;;;;;;;51.58;25.42;;;4.10;99.90;;;;;;5097651;28;20105;-72
2022/03/03 06:58:59;;;;;;;52.60;27.23;;;4.10;99.90;;;;;;5073993;27;20535;-74
2022/03/03 07:01:28;;;;;;;47.80;25.08;;;6.30;99.90;;;;;;5093278;27;20048;-72
2022/03/03 07:03:55;;;;;;;51.38;25.45;;;4.90;99.90;;;;;;5096829;27;20032;-72
2022/03/03 07:06:22;;;;;;;55.60;28.20;;;4.80;99.90;;;;;;5081857;28;20040;-72
2022/03/03 07:08:53;;;;;;;57.17;28.40;;;4.70;99.90;;;;;;5099497;27;20089;-74
2022/03/03 07:11:19;;;;;;;49.40;25.42;;;5.40;99.90;;;;;;5113980;27;20387;-72
2022/03/03 07:13:46;;;;;;;55.60;29.33;;;5.10;99.90;;;;;;5093683;28;20047;-71
2022/03/03 07:16:42;;;;;;;51.22;25.55;;;5.00;99.90;;;;;;5094092;28;20368;-73
2022/03/03 07:19:28;;;;;;;46.63;24.52;;;5.00;99.90;;;;;;5087212;27;20068;-73
2022/03/03 07:22:19;;;;;;;51.10;25.65;;;4.70;99.90;;;;;;5106572;27;20447;-73
2022/03/03 07:24:58;;;;;;;47.05;24.75;;;5.00;99.90;;;;;;5098856;27;20043;-73
2022/03/03 07:27:25;;;;;;;48.95;22.48;;;4.90;99.90;;;;;;5079243;28;20032;-73
2022/03/03 07:29:57;;;;;;;50.65;26.40;;;4.90;99.90;;;;;;5074363;28;20047;-74
2022/03/03 07:32:34;;;;;;;47.75;24.92;;;4.70;99.90;;;;;;5077335;27;20028;-74
2022/03/03 07:35:05;;;;;;;47.35;24.55;;;5.10;99.90;;;;;;5100634;27;20127;-73
2022/03/03 07:37:36;;;;;;;44.33;22.98;;;5.10;99.90;;;;;;5095525;28;20063;-74
2022/03/03 07:40:08;;;;;;;46.03;24.48;;;4.70;99.90;;;;;;5077162;28;20048;-73
2022/03/03 07:42:34;;;;;;;44.00;24.40;;;5.10;99.90;;;;;;5090107;28;20051;-73
2022/03/03 07:45:03;;;;;;;54.33;28.75;;;4.90;99.90;;;;;;5080970;28;20039;-72
2022/03/03 07:47:30;;;;;;;48.70;25.58;;;4.80;99.90;;;;;;5093244;28;20165;-73
2022/03/03 07:49:56;;;;;;;44.55;24.55;;;4.80;99.90;;;;;;5107502;27;20040;-73
2022/03/03 07:52:25;;;;;;;50.03;27.55;;;4.80;99.90;;;;;;5096911;27;20032;-73
2022/03/03 07:54:51;;;;;;;44.10;23.35;;;4.40;99.90;;;;;;5096138;28;20060;-73
2022/03/03 07:57:19;;;;;;;51.83;27.10;;;4.30;99.90;;;;;;5057370;28;20032;-73
2022/03/03 08:00:01;;;;;;;51.58;25.88;;;4.20;99.90;;;;;;5092407;28;20411;-73
2022/03/03 08:02:31;;;;;;;42.90;22.60;;;4.60;99.90;;;;;;5080200;28;20044;-74
2022/03/03 08:05:01;;;;;;;51.78;26.20;;;4.10;99.90;;;;;;5094796;27;20122;-75
2022/03/03 08:07:27;;;;;;;46.35;22.38;;;5.00;99.90;;;;;;5100513;28;20447;-73
2022/03/03 08:09:59;;;;;;;49.65;25.73;;;4.10;99.90;;;;;;5092720;27;20047;-73
2022/03/03 08:12:26;;;;;;;49.92;26.35;;;4.20;99.90;;;;;;5089243;27;20572;-73
2022/03/03 08:14:53;;;;;;;43.38;24.02;;;4.00;99.90;;;;;;5099224;27;20032;-73
2022/03/03 08:17:19;;;;;;;44.65;25.33;;;4.20;99.90;;;;;;5125897;27;20376;-74
2022/03/03 08:19:45;;;;;;;46.80;25.00;;;4.30;99.90;;;;;;5074509;28;20046;-74
2022/03/03 08:22:14;;;;;;;49.45;26.00;;;4.60;99.90;;;;;;5091979;28;20050;-74
2022/03/03 08:24:43;;;;;;;49.97;26.13;;;5.20;99.90;;;;;;5075589;27;20039;-74
2022/03/03 08:27:14;;;;;;;50.17;26.67;;;4.40;99.90;;;;;;5096527;27;20202;-74
2022/03/03 08:29:40;;;;;;;45.72;24.92;;;4.70;99.90;;;;;;5095948;27;20039;-74
2022/03/03 08:32:11;;;;;;;46.60;25.42;;;4.70;99.90;;;;;;5077113;28;20039;-73
2022/03/03 08:35:01;;;;;;;45.70;23.80;;;4.60;99.90;;;;;;5091799;28;20039;-72
2022/03/03 08:37:37;;;;;;;55.83;28.55;;;4.70;99.90;;;;;;5079979;28;20055;-73
2022/03/03 08:40:05;;;;;;;43.78;24.27;;;4.80;99.90;;;;;;5090018;27;20047;-72
2022/03/03 08:42:36;;;;;;;45.95;23.33;;;4.90;99.90;;;;;;5086730;28;20040;-73
2022/03/03 08:45:04;;;;;;;48.17;24.25;;;4.60;99.90;;;;;;5091457;28;20376;-73
2022/03/03 08:47:32;;;;;;;45.33;24.75;;;4.60;99.90;;;;;;5111937;27;20446;-71
2022/03/03 08:50:06;;;;;;;47.35;27.45;;;5.50;99.90;;;;;;5099583;28;20392;-72
2022/03/03 08:52:32;;;;;;;42.80;22.10;;;5.00;99.90;;;;;;5096820;27;21090;-72
2022/03/03 08:54:58;;;;;;;44.90;25.00;;;4.70;99.90;;;;;;5066045;28;20042;-71
2022/03/03 08:57:23;;;;;;;42.88;21.98;;;5.00;99.90;;;;;;5094723;28;20047;-72
2022/03/03 08:59:49;;;;;;;36.03;20.05;;;5.10;99.90;;;;;;5076516;28;20575;-72
2022/03/03 09:02:16;;;;;;;46.13;24.75;;;5.00;99.90;;;;;;5063019;27;20483;-72
2022/03/03 09:04:44;;;;;;;46.00;25.05;;;5.50;99.90;;;;;;5065715;28;20376;-72
2022/03/03 09:07:10;;;;;;;46.03;25.00;;;5.20;99.90;;;;;;5090040;27;20127;-73
2022/03/03 09:09:36;;;;;;;40.80;24.10;;;5.10;99.90;;;;;;5101823;28;20040;-73
2022/03/03 09:12:03;;;;;;;43.88;22.58;;;5.50;99.90;;;;;;5106870;27;20100;-73
2022/03/03 09:14:29;;;;;;;41.58;22.38;;;5.40;99.90;;;;;;5103206;27;20109;-73
2022/03/03 09:16:55;;;;;;;37.90;19.55;;;5.40;99.90;;;;;;5105673;28;20064;-73
2022/03/03 09:19:21;;;;;;;38.55;21.33;;;5.40;99.90;;;;;;5086893;28;20420;-73
2022/03/03 09:21:47;;;;;;;42.65;23.52;;;5.50;99.90;;;;;;5091629;28;20085;-73
2022/03/03 09:24:13;;;;;;;42.95;24.13;;;5.70;99.90;;;;;;5091266;28;20655;-73
2022/03/03 09:26:39;;;;;;;38.92;22.23;;;5.70;99.90;;;;;;5103580;28;20043;-73
2022/03/03 09:29:05;;;;;;;40.25;22.67;;;5.80;99.90;;;;;;5097809;28;20494;-73
2022/03/03 09:31:31;;;;;;;34.35;19.75;;;5.70;99.90;;;;;;5099769;28;20657;-72
2022/03/03 09:33:57;;;;;;;39.70;22.00;;;5.50;99.90;;;;;;5081062;28;20454;-73
2022/03/03 09:36:23;;;;;;;37.08;22.63;;;6.10;99.90;;;;;;5089519;28;20036;-73
2022/03/03 09:38:49;;;;;;;39.30;23.30;;;6.20;99.90;;;;;;5089094;27;20511;-71
2022/03/03 09:41:15;;;;;;;34.95;17.42;;;6.20;99.90;;;;;;5073707;27;20304;-72
2022/03/03 09:43:42;;;;;;;36.28;22.23;;;6.20;99.90;;;;;;5077246;28;20043;-72
2022/03/03 09:46:08;;;;;;;37.92;22.20;;;6.40;99.90;;;;;;5097341;28;20116;-72
2022/03/03 09:48:34;;;;;;;38.33;23.38;;;6.60;99.90;;;;;;5072351;28;20139;-72
2022/03/03 09:51:00;;;;;;;35.70;21.42;;;7.10;99.90;;;;;;5084833;28;20121;-71
2022/03/03 09:53:26;;;;;;;34.78;21.80;;;7.20;99.90;;;;;;5087884;27;20039;-72
2022/03/03 09:55:52;;;;;;;31.13;18.42;;;7.20;99.90;;;;;;5086421;28;20041;-72
2022/03/03 09:58:18;;;;;;;34.33;21.80;;;7.40;99.90;;;;;;5095878;28;20043;-73
2022/03/03 10:00:46;;;;;;;28.55;18.50;;;7.70;99.90;;;;;;5096722;28;20627;-72
2022/03/03 10:03:15;;;;;;;29.83;18.25;;;7.70;99.90;;;;;;5081208;28;20035;-73
2022/03/03 10:05:53;;;;;;;30.35;19.00;;;7.80;99.90;;;;;;5087322;28;20740;-73
2022/03/03 10:08:24;;;;;;;26.33;18.13;;;8.20;99.90;;;;;;5079027;28;20044;-73
2022/03/03 10:11:02;;;;;;;28.02;18.23;;;8.40;99.90;;;;;;5097869;28;20050;-71
2022/03/03 10:13:43;;;;;;;28.35;18.17;;;8.90;99.90;;;;;;5083173;28;20873;-72
2022/03/03 10:16:09;;;;;;;22.67;16.15;;;8.80;99.90;;;;;;5101746;28;20040;-71
2022/03/03 10:18:36;;;;;;;22.40;15.95;;;8.90;99.90;;;;;;5073951;28;20047;-72
2022/03/03 10:21:04;;;;;;;22.92;15.98;;;8.90;99.90;;;;;;5080951;28;20133;-72
2022/03/03 10:23:35;;;;;;;24.10;16.30;;;9.00;99.90;;;;;;5087037;28;20201;-72
2022/03/03 10:26:05;;;;;;;23.05;16.63;;;9.30;99.90;;;;;;5112213;28;20039;-72
2022/03/03 10:28:33;;;;;;;22.98;15.07;;;9.20;99.90;;;;;;5101905;28;20044;-71
2022/03/03 10:31:13;;;;;;;22.65;15.85;;;9.00;99.90;;;;;;5091846;28;20043;-71
2022/03/03 10:33:47;;;;;;;23.63;15.55;;;9.10;99.90;;;;;;5089165;28;20039;-71
2022/03/03 10:36:19;;;;;;;20.05;14.48;;;9.10;99.90;;;;;;5084254;28;20399;-71
2022/03/03 10:39:00;;;;;;;21.33;15.35;;;9.00;99.90;;;;;;5102903;28;20842;-72
2022/03/03 10:41:41;;;;;;;21.75;15.75;;;9.20;99.90;;;;;;5122261;27;20046;-72
2022/03/03 10:44:14;;;;;;;20.73;13.90;;;9.00;99.90;;;;;;5096018;28;20084;-72
2022/03/03 10:47:10;;;;;;;20.23;14.57;;;9.10;99.90;;;;;;5060756;28;20043;-72
2022/03/03 10:49:47;;;;;;;20.08;14.80;;;8.90;99.90;;;;;;5100073;28;20122;-73
2022/03/03 10:52:22;;;;;;;19.52;14.43;;;8.90;99.90;;;;;;5097801;28;20146;-72
2022/03/03 10:54:56;;;;;;;21.83;15.48;;;9.00;99.90;;;;;;5098519;28;20039;-71
2022/03/03 10:57:37;;;;;;;23.98;15.88;;;8.80;99.90;;;;;;5090547;28;20044;-72
2022/03/03 11:00:16;;;;;;;25.52;18.00;;;8.80;99.90;;;;;;5098678;28;20419;-71
2022/03/03 11:02:47;;;;;;;24.25;16.77;;;8.80;99.90;;;;;;5097110;28;20164;-71
2022/03/03 11:05:14;;;;;;;24.15;16.83;;;9.10;99.90;;;;;;5095425;27;20044;-71
2022/03/03 11:07:42;;;;;;;24.13;15.20;;;8.70;99.90;;;;;;5083808;28;20043;-71
2022/03/03 11:10:10;;;;;;;24.35;15.60;;;8.80;99.90;;;;;;5093669;28;20058;-72
2022/03/03 11:12:38;;;;;;;23.58;16.45;;;8.70;99.90;;;;;;5068639;28;20047;-71
2022/03/03 11:15:04;;;;;;;21.05;15.02;;;8.70;99.90;;;;;;5079836;27;20064;-71
2022/03/03 11:17:30;;;;;;;22.98;15.68;;;8.60;99.90;;;;;;5075540;27;20123;-71
2022/03/03 11:19:59;;;;;;;24.20;15.98;;;8.50;99.90;;;;;;5089719;27;20090;-72
2022/03/03 11:22:32;;;;;;;26.15;16.90;;;8.50;99.90;;;;;;5079646;28;20040;-72
2022/03/03 11:25:01;;;;;;;28.67;19.45;;;8.80;99.90;;;;;;5094469;27;20067;-71
2022/03/03 11:27:38;;;;;;;32.38;20.67;;;8.60;99.90;;;;;;5072673;28;20423;-71
2022/03/03 11:30:17;;;;;;;25.45;17.60;;;8.80;99.90;;;;;;5097355;28;20042;-72
2022/03/03 11:32:44;;;;;;;25.77;17.88;;;9.20;99.90;;;;;;5073634;28;20036;-72
2022/03/03 11:35:12;;;;;;;23.00;15.13;;;9.10;99.90;;;;;;5098193;28;20042;-73
2022/03/03 11:37:40;;;;;;;25.55;16.88;;;9.20;99.90;;;;;;5093125;28;20047;-72
2022/03/03 11:40:06;;;;;;;23.25;15.68;;;9.30;99.90;;;;;;5092867;27;20036;-75
2022/03/03 11:42:37;;;;;;;25.50;16.83;;;9.10;99.90;;;;;;5089561;28;20043;-72
2022/03/03 11:45:06;;;;;;;26.02;18.20;;;8.90;99.90;;;;;;5084384;28;20040;-73
2022/03/03 11:47:34;;;;;;;25.02;16.75;;;9.00;99.90;;;;;;5104747;28;20542;-72
2022/03/03 11:50:13;;;;;;;24.42;16.10;;;9.10;99.90;;;;;;5087207;28;20051;-73
2022/03/03 11:52:40;;;;;;;22.77;15.20;;;9.10;99.90;;;;;;5088189;27;20480;-72
2022/03/03 11:55:35;;;;;;;23.67;16.45;;;9.20;99.90;;;;;;5099516;27;20091;-72
2022/03/03 11:58:12;;;;;;;22.85;15.73;;;9.20;99.90;;;;;;5101663;28;20703;-72
2022/03/03 12:00:43;;;;;;;18.65;13.40;;;9.10;99.90;;;;;;5100517;27;20085;-71
2022/03/03 12:03:14;;;;;;;24.75;17.27;;;8.90;99.90;;;;;;5102412;28;20042;-72
2022/03/03 12:05:47;;;;;;;25.65;17.02;;;9.00;99.90;;;;;;5100166;27;20039;-72
2022/03/03 12:08:16;;;;;;;27.02;18.25;;;9.00;99.90;;;;;;5080219;28;20230;-73
2022/03/03 12:11:08;;;;;;;26.75;17.83;;;9.00;99.90;;;;;;5105356;27;20040;-72
2022/03/03 12:13:40;;;;;;;28.85;18.23;;;9.10;99.90;;;;;;5084748;28;20082;-72
2022/03/03 12:16:19;;;;;;;26.13;17.40;;;9.20;99.90;;;;;;5088993;28;20126;-72
2022/03/03 12:18:47;;;;;;;24.65;16.80;;;9.30;99.90;;;;;;5085305;28;20040;-71
2022/03/03 12:21:32;;;;;;;24.08;13.60;;;9.40;99.90;;;;;;5103781;28;20043;-71
2022/03/03 12:24:13;;;;;;;24.42;16.90;;;9.40;99.90;;;;;;5090125;27;20287;-71
2022/03/03 12:26:54;;;;;;;24.05;17.05;;;9.30;99.90;;;;;;5089904;27;20147;-73
2022/03/03 12:29:52;;;;;;;26.10;17.23;;;9.50;99.90;;;;;;5088509;27;20052;-71
2022/03/03 12:32:39;;;;;;;21.10;14.50;;;9.50;99.90;;;;;;5088836;27;20040;-72
2022/03/03 12:35:20;;;;;;;21.85;15.05;;;9.60;99.90;;;;;;5093781;28;20043;-73
2022/03/03 12:37:46;;;;;;;22.35;15.27;;;9.60;99.90;;;;;;5088750;27;20067;-72
2022/03/03 12:40:15;;;;;;;28.15;15.27;;;10.00;99.90;;;;;;5069294;28;20043;-72
2022/03/03 12:42:44;;;;;;;21.38;15.70;;;9.50;99.90;;;;;;5095446;28;20047;-73